Time;durP1;ratioP1;P1;durP2;ratioP2;P2;SDS_P1;SDS_P2;PMS_P1;PMS_P2;Temp;Humidity;BMP_temperature;BMP_pressure;BME280_temperature;BME280_humidity;BME280_pressure;Samples;Min_cycle;Max_cycle;Signal;HPM_P1;HPM_P2
2022/12/17 13:06:46;;;;;;;51.58;26.40;;;2.00;73.50;;;;;;2345548;57;21045;-50
2022/12/17 13:09:31;;;;;;;44.20;23.52;;;2.00;73.40;;;;;;2344646;57;21054;-54
2022/12/17 13:12:28;;;;;;;42.60;23.02;;;2.00;73.20;;;;;;2345301;57;21518;-49
2022/12/17 13:15:14;;;;;;;42.40;23.85;;;2.00;73.10;;;;;;2345782;57;21672;-48
2022/12/17 13:17:53;;;;;;;42.28;22.52;;;2.10;73.00;;;;;;2345040;57;21326;-48
2022/12/17 13:20:24;;;;;;;44.10;23.98;;;2.10;72.90;;;;;;2345227;57;21066;-50
2022/12/17 13:23:03;;;;;;;40.80;22.73;;;2.10;72.70;;;;;;2345082;57;21117;-49
2022/12/17 13:25:30;;;;;;;39.15;21.60;;;2.10;72.70;;;;;;2344798;57;21121;-50
2022/12/17 13:27:58;;;;;;;41.33;21.75;;;2.10;72.70;;;;;;2343868;57;21069;-51
2022/12/17 13:30:34;;;;;;;40.80;22.67;;;2.20;72.70;;;;;;2344624;57;21093;-49
2022/12/17 13:33:17;;;;;;;38.10;20.25;;;2.20;72.60;;;;;;2344663;57;21109;-49
2022/12/17 13:35:56;;;;;;;36.15;20.85;;;2.30;72.30;;;;;;2344883;57;21058;-52
2022/12/17 13:38:30;;;;;;;41.80;19.87;;;2.30;72.10;;;;;;2344416;57;21608;-52
2022/12/17 13:41:06;;;;;;;38.22;19.90;;;2.30;72.10;;;;;;2344561;57;21050;-49
2022/12/17 13:43:38;;;;;;;33.05;20.02;;;2.30;71.80;;;;;;2345495;57;21574;-48
2022/12/17 13:46:06;;;;;;;32.90;18.65;;;2.40;71.60;;;;;;2346055;57;21021;-49
2022/12/17 13:48:33;;;;;;;35.75;18.17;;;2.40;71.40;;;;;;2346115;57;21608;-52
2022/12/17 13:51:02;;;;;;;34.63;18.08;;;2.30;71.30;;;;;;2346177;57;21010;-53
2022/12/17 13:53:33;;;;;;;34.55;20.10;;;2.30;71.10;;;;;;2345523;57;21109;-51
2022/12/17 13:56:00;;;;;;;33.72;18.42;;;2.30;71.20;;;;;;2345499;57;21049;-49
2022/12/17 13:58:29;;;;;;;32.40;17.62;;;2.30;71.10;;;;;;2344946;57;21581;-49
2022/12/17 14:01:08;;;;;;;28.38;16.67;;;2.40;71.10;;;;;;2343887;57;21050;-52
2022/12/17 14:03:35;;;;;;;27.67;15.52;;;2.40;71.00;;;;;;2344452;57;21118;-49
2022/12/17 14:06:03;;;;;;;30.75;17.10;;;2.40;70.80;;;;;;2344656;57;21565;-49
2022/12/17 14:08:33;;;;;;;30.27;17.85;;;2.40;70.80;;;;;;2344617;57;21672;-52
2022/12/17 14:13:49;;;;;;;29.33;16.67;;;2.40;70.40;;;;;;2345221;57;21014;-50
2022/12/17 14:16:17;;;;;;;33.65;17.62;;;2.40;70.30;;;;;;2344696;57;21506;-51
2022/12/17 14:18:50;;;;;;;27.60;16.60;;;2.40;70.30;;;;;;2345124;57;21094;-49
2022/12/17 14:21:18;;;;;;;35.17;18.15;;;2.40;70.30;;;;;;2344865;57;21546;-50
2022/12/17 14:23:49;;;;;;;31.83;17.02;;;2.40;70.20;;;;;;2344407;57;21524;-49
2022/12/17 14:26:17;;;;;;;31.65;17.10;;;2.40;70.10;;;;;;2344375;57;21030;-49
2022/12/17 14:28:47;;;;;;;27.52;16.73;;;2.30;69.90;;;;;;2344003;57;22157;-48
2022/12/17 14:31:21;;;;;;;27.90;16.33;;;2.30;69.90;;;;;;2344752;57;21300;-49
2022/12/17 14:34:00;;;;;;;28.35;16.33;;;2.30;70.00;;;;;;2344148;57;21065;-49
2022/12/17 14:36:29;;;;;;;28.48;16.65;;;2.30;70.00;;;;;;2345661;57;21617;-49
2022/12/17 14:38:58;;;;;;;30.55;16.75;;;2.30;70.00;;;;;;2345705;57;21180;-49
2022/12/17 14:47:10;;;;;;;28.25;16.08;;;2.30;69.80;;;;;;2355686;57;22026;-46
2022/12/17 14:49:49;;;;;;;26.42;15.52;;;2.30;69.70;;;;;;2360009;56;21075;-48
2022/12/17 14:52:29;;;;;;;29.50;16.65;;;2.30;69.60;;;;;;2374299;56;21115;-52
2022/12/17 14:54:57;;;;;;;29.30;15.98;;;2.20;69.50;;;;;;2374480;56;21099;-49
2022/12/17 14:57:24;;;;;;;28.75;16.52;;;2.20;70.20;;;;;;2628333;52;21504;-49
2022/12/17 14:59:52;;;;;;;28.62;16.15;;;2.20;69.40;;;;;;2374454;56;21103;-50
2022/12/17 15:02:22;;;;;;;26.67;15.15;;;2.20;69.50;;;;;;2374698;56;21099;-48
2022/12/17 15:04:51;;;;;;;32.22;16.75;;;2.20;69.60;;;;;;2374928;56;21728;-52
2022/12/17 15:07:23;;;;;;;31.15;16.45;;;2.20;69.60;;;;;;2375562;56;21055;-49
2022/12/17 15:09:51;;;;;;;26.80;15.88;;;2.10;69.50;;;;;;2374665;56;21610;-50
2022/12/17 15:12:19;;;;;;;27.27;15.15;;;2.10;69.40;;;;;;2375187;56;22133;-50
2022/12/17 15:14:47;;;;;;;28.38;14.40;;;2.10;69.40;;;;;;2374925;56;21150;-50
2022/12/17 15:17:14;;;;;;;21.20;14.10;;;2.10;69.50;;;;;;2374449;56;21036;-52
2022/12/17 15:19:42;;;;;;;29.50;15.00;;;2.10;69.50;;;;;;2374612;56;21646;-50
2022/12/17 15:22:14;;;;;;;24.35;14.60;;;2.10;69.40;;;;;;2374795;56;21625;-49
2022/12/17 15:24:42;;;;;;;28.73;14.95;;;2.10;69.30;;;;;;2374871;56;21528;-48
2022/12/17 15:27:12;;;;;;;28.58;15.05;;;2.00;69.20;;;;;;2373965;56;21039;-52
2022/12/17 15:29:40;;;;;;;24.48;14.75;;;2.00;69.20;;;;;;2374734;56;21040;-52
2022/12/17 15:32:07;;;;;;;34.25;15.05;;;2.00;69.30;;;;;;2374728;56;21132;-49
2022/12/17 15:34:34;;;;;;;30.17;14.35;;;2.00;69.30;;;;;;2374303;56;21111;-52
2022/12/17 15:37:01;;;;;;;28.98;16.48;;;2.00;69.30;;;;;;2374210;56;21124;-53
2022/12/17 15:39:29;;;;;;;28.12;13.95;;;1.90;69.30;;;;;;2374424;56;21055;-52
2022/12/17 15:44:41;;;;;;;26.30;14.60;;;1.90;69.40;;;;;;2373880;56;21115;-50
2022/12/17 15:47:08;;;;;;;25.02;13.55;;;1.80;69.30;;;;;;2374634;56;21453;-51
2022/12/17 15:49:35;;;;;;;26.77;13.30;;;1.80;69.40;;;;;;2374726;56;21588;-50
2022/12/17 15:52:03;;;;;;;22.45;13.38;;;1.80;69.50;;;;;;2374303;56;21039;-52
2022/12/17 15:54:30;;;;;;;26.17;13.73;;;1.70;69.40;;;;;;2374590;56;21039;-50
2022/12/17 15:56:57;;;;;;;27.48;13.43;;;1.70;69.40;;;;;;2375148;56;21115;-48
2022/12/17 15:59:24;;;;;;;24.67;12.35;;;1.70;69.50;;;;;;2374472;56;21036;-49
2022/12/17 16:01:51;;;;;;;21.02;11.95;;;1.70;69.40;;;;;;2372770;56;21028;-52
2022/12/17 16:04:18;;;;;;;23.20;12.73;;;1.70;69.50;;;;;;2371808;56;21055;-48
2022/12/17 16:06:46;;;;;;;21.85;12.98;;;1.70;70.10;;;;;;2372465;56;21551;-52
2022/12/17 16:09:13;;;;;;;20.05;12.35;;;1.80;71.30;;;;;;2372118;56;21147;-53
2022/12/17 16:11:40;;;;;;;21.55;11.38;;;1.80;72.00;;;;;;2372756;56;21119;-51
2022/12/17 16:14:07;;;;;;;21.62;11.32;;;1.90;72.30;;;;;;2371126;56;21051;-49
2022/12/17 16:16:34;;;;;;;20.33;12.13;;;2.00;71.70;;;;;;2372170;56;21099;-50
2022/12/17 16:19:02;;;;;;;23.62;13.23;;;2.00;70.70;;;;;;2372499;56;21115;-52
2022/12/17 16:21:29;;;;;;;17.55;11.10;;;2.00;69.90;;;;;;2374026;56;21043;-49
2022/12/17 16:26:32;;;;;;;25.80;14.40;;;2.00;69.00;;;;;;2327295;57;22091;-49
2022/12/17 16:28:59;;;;;;;26.55;13.52;;;2.00;68.80;;;;;;2349768;56;21078;-50
2022/12/17 16:31:26;;;;;;;23.92;13.52;;;1.90;68.60;;;;;;2372271;56;21106;-51
2022/12/17 16:33:53;;;;;;;22.27;12.68;;;1.90;69.40;;;;;;2373645;56;21210;-49
2022/12/17 16:36:21;;;;;;;28.10;15.15;;;1.90;68.50;;;;;;2372818;56;21050;-50
2022/12/17 16:38:50;;;;;;;28.45;15.80;;;1.90;68.50;;;;;;2373420;56;21066;-50
2022/12/17 16:41:19;;;;;;;32.25;17.17;;;1.90;68.40;;;;;;2373729;56;21550;-49
2022/12/17 16:43:47;;;;;;;30.73;17.83;;;1.90;68.30;;;;;;2373985;56;21051;-50
2022/12/17 16:46:26;;;;;;;37.22;18.35;;;1.80;68.30;;;;;;2373077;56;21613;-48
2022/12/17 16:48:54;;;;;;;32.40;18.37;;;1.80;68.30;;;;;;2372917;56;21071;-50
2022/12/17 16:51:24;;;;;;;29.05;16.73;;;1.80;68.40;;;;;;2375033;56;22132;-48
2022/12/17 16:53:51;;;;;;;35.88;18.52;;;1.80;68.40;;;;;;2374249;56;21329;-51
2022/12/17 16:56:21;;;;;;;29.30;18.17;;;1.70;68.50;;;;;;2373343;56;21059;-50
2022/12/17 16:58:48;;;;;;;31.92;17.73;;;1.70;68.50;;;;;;2373469;56;21102;-51
2022/12/17 17:01:19;;;;;;;30.58;16.85;;;1.70;68.70;;;;;;2373818;56;21330;-51
2022/12/17 17:03:46;;;;;;;34.78;19.30;;;1.70;68.70;;;;;;2373363;56;21546;-50
2022/12/17 17:06:13;;;;;;;34.15;17.90;;;1.70;68.70;;;;;;2373342;56;21042;-53
2022/12/17 17:08:41;;;;;;;36.38;18.12;;;1.70;68.70;;;;;;2373369;56;21117;-51
2022/12/17 17:11:10;;;;;;;37.78;19.67;;;1.70;68.80;;;;;;2371704;56;21051;-50
2022/12/17 17:13:38;;;;;;;37.55;18.55;;;1.60;68.70;;;;;;2375670;56;21050;-51
2022/12/17 17:16:07;;;;;;;33.10;18.08;;;1.60;68.70;;;;;;2375549;56;21575;-55
2022/12/17 17:18:35;;;;;;;34.38;19.27;;;1.60;68.80;;;;;;2375973;56;21579;-52
2022/12/17 17:21:22;;;;;;;32.95;17.42;;;1.60;68.80;;;;;;2375403;56;21118;-51
2022/12/17 17:23:52;;;;;;;29.25;16.50;;;1.60;68.80;;;;;;2375857;56;21030;-48
2022/12/17 17:26:20;;;;;;;33.13;18.12;;;1.50;68.70;;;;;;2372842;56;21325;-50
2022/12/17 17:28:48;;;;;;;33.17;18.08;;;1.50;68.70;;;;;;2373543;56;21050;-50
2022/12/17 17:31:16;;;;;;;37.50;18.00;;;1.50;68.80;;;;;;2373248;56;21047;-51
2022/12/17 17:33:46;;;;;;;34.92;17.62;;;1.40;68.70;;;;;;2373956;56;21035;-49
2022/12/17 17:36:16;;;;;;;33.47;18.52;;;1.40;68.80;;;;;;2373569;56;21059;-48
2022/12/17 17:38:43;;;;;;;31.15;16.62;;;1.40;68.90;;;;;;2372751;56;21158;-51
2022/12/17 17:41:13;;;;;;;30.33;16.62;;;1.40;68.90;;;;;;2372604;56;21600;-53
2022/12/17 17:43:40;;;;;;;30.45;17.62;;;1.40;69.00;;;;;;2373262;56;21634;-51
2022/12/17 17:46:09;;;;;;;30.70;17.73;;;1.40;69.00;;;;;;2372368;56;21063;-49
2022/12/17 17:48:36;;;;;;;32.88;17.60;;;1.30;69.10;;;;;;2625402;52;21688;-53
2022/12/17 17:51:06;;;;;;;27.13;16.90;;;1.30;69.30;;;;;;2372673;56;21591;-50
2022/12/17 17:53:33;;;;;;;30.30;16.77;;;1.30;69.30;;;;;;2373041;56;21035;-52
2022/12/17 17:56:06;;;;;;;30.37;18.10;;;1.30;69.30;;;;;;2372754;56;21058;-49
2022/12/17 17:58:33;;;;;;;;;;;1.30;69.40;;;;;;2375865;56;21050;-50
2022/12/17 18:01:08;;;;;;;35.30;17.40;;;1.30;70.20;;;;;;2372711;56;20390;-52
2022/12/17 18:03:36;;;;;;;34.35;17.23;;;1.30;69.00;;;;;;2372204;56;21043;-47
2022/12/17 18:06:05;;;;;;;32.30;17.45;;;1.20;69.20;;;;;;2373801;56;21669;-48
2022/12/17 18:08:33;;;;;;;33.85;17.92;;;1.20;69.30;;;;;;2374122;56;21154;-49
2022/12/17 18:11:02;;;;;;;34.63;17.58;;;1.20;69.40;;;;;;2374087;56;21035;-52
2022/12/17 18:16:14;;;;;;;32.92;18.05;;;1.20;69.60;;;;;;2626151;52;20950;-48
2022/12/17 18:18:41;;;;;;;29.85;17.73;;;1.20;69.50;;;;;;2626326;52;21063;-51
2022/12/17 18:21:11;;;;;;;28.40;16.33;;;1.20;70.10;;;;;;2372341;56;21133;-49
2022/12/17 18:23:39;;;;;;;32.47;17.83;;;1.20;71.20;;;;;;2371872;56;21575;-53
2022/12/17 18:26:08;;;;;;;33.42;18.40;;;1.20;71.40;;;;;;2372589;56;21055;-49
2022/12/17 18:28:36;;;;;;;36.38;18.77;;;1.30;70.80;;;;;;2373112;56;21625;-52
2022/12/17 18:31:13;;;;;;;31.85;18.15;;;1.30;70.30;;;;;;2370369;56;21610;-53
2022/12/17 18:33:42;;;;;;;31.25;18.67;;;1.30;69.90;;;;;;2372302;56;21610;-51
2022/12/17 18:36:12;;;;;;;32.00;18.25;;;1.20;70.40;;;;;;2372981;56;22170;-49
2022/12/17 18:38:39;;;;;;;32.58;18.70;;;1.30;69.50;;;;;;2372698;56;21988;-49
2022/12/17 18:43:58;;;;;;;30.77;17.67;;;1.20;69.10;;;;;;2624770;52;22109;-50
2022/12/17 18:46:26;;;;;;;35.72;18.15;;;1.20;68.90;;;;;;2372476;56;21054;-48
2022/12/17 18:48:56;;;;;;;34.58;20.12;;;1.20;68.90;;;;;;2371989;56;21101;-50
2022/12/17 18:51:24;;;;;;;37.03;20.77;;;1.20;68.90;;;;;;2372344;56;21118;-51
2022/12/17 18:53:55;;;;;;;33.55;19.15;;;1.20;68.90;;;;;;2372771;56;21027;-47
2022/12/17 18:56:23;;;;;;;37.75;20.58;;;1.20;68.90;;;;;;2371976;56;22146;-49
2022/12/17 18:58:51;;;;;;;36.33;19.77;;;1.10;68.80;;;;;;2372245;56;21137;-51
2022/12/17 19:01:20;;;;;;;37.70;20.62;;;1.10;68.80;;;;;;2373433;56;21015;-50
2022/12/17 19:03:48;;;;;;;37.85;20.95;;;1.10;68.80;;;;;;2373913;56;21023;-48
2022/12/17 19:06:16;;;;;;;38.20;21.45;;;1.10;68.80;;;;;;2373604;56;21102;-48
2022/12/17 19:08:43;;;;;;;33.90;19.50;;;1.10;68.80;;;;;;2371662;56;21535;-49
2022/12/17 19:11:11;;;;;;;37.95;21.02;;;1.10;68.80;;;;;;2626531;52;21081;-49
2022/12/17 19:13:38;;;;;;;36.58;22.23;;;1.10;68.80;;;;;;2371917;56;21055;-49
2022/12/17 19:16:09;;;;;;;35.30;22.40;;;1.00;68.90;;;;;;2372269;56;21110;-50
2022/12/17 19:18:37;;;;;;;40.75;22.70;;;1.00;69.00;;;;;;2372089;56;21118;-49
2022/12/17 19:21:07;;;;;;;40.53;21.58;;;1.00;69.20;;;;;;2371811;56;21140;-48
2022/12/17 19:23:35;;;;;;;39.75;22.92;;;1.00;69.40;;;;;;2370022;56;21566;-52
2022/12/17 19:26:07;;;;;;;45.20;28.58;;;1.00;69.30;;;;;;2371835;56;21826;-50
2022/12/17 19:28:35;;;;;;;46.72;27.40;;;1.00;69.30;;;;;;2372741;56;21043;-49
2022/12/17 19:31:02;;;;;;;43.55;27.08;;;0.90;69.10;;;;;;2626620;52;21082;-51
2022/12/17 19:33:29;;;;;;;44.33;28.90;;;0.90;68.90;;;;;;2376377;55;21051;-47
2022/12/17 19:36:02;;;;;;;46.47;29.77;;;0.90;68.90;;;;;;2255019;59;21326;-49
2022/12/17 19:38:29;;;;;;;43.17;26.92;;;0.90;68.90;;;;;;2255332;59;21633;-50
2022/12/17 19:41:01;;;;;;;39.80;24.10;;;0.90;69.00;;;;;;2254150;59;21135;-48
2022/12/17 19:43:28;;;;;;;40.17;23.17;;;0.90;69.00;;;;;;2254743;59;21578;-48
2022/12/17 19:46:01;;;;;;;47.05;23.35;;;0.80;69.00;;;;;;2255141;59;21071;-51
2022/12/17 19:48:31;;;;;;;41.92;23.08;;;0.80;69.00;;;;;;2482191;56;21095;-46
2022/12/17 19:50:58;;;;;;;35.22;22.58;;;0.80;69.00;;;;;;2256358;59;21563;-50
2022/12/17 19:53:27;;;;;;;43.58;24.50;;;0.80;69.10;;;;;;2256533;59;21539;-50
2022/12/17 19:55:55;;;;;;;38.22;23.42;;;0.80;69.10;;;;;;2256302;59;21178;-48
2022/12/17 19:58:23;;;;;;;41.53;22.33;;;0.70;69.00;;;;;;2483248;56;21111;-48
2022/12/17 20:00:51;;;;;;;42.33;22.87;;;0.70;69.10;;;;;;2254612;59;21154;-48
2022/12/17 20:03:18;;;;;;;43.78;23.77;;;0.70;69.30;;;;;;2253639;59;21099;-47
2022/12/17 20:05:45;;;;;;;43.80;26.37;;;0.70;69.40;;;;;;2255620;59;21091;-51
2022/12/17 20:08:13;;;;;;;43.85;24.15;;;0.70;69.40;;;;;;2255682;59;21071;-50
2022/12/17 20:10:40;;;;;;;40.38;25.85;;;0.70;69.30;;;;;;2255129;59;21214;-47
2022/12/17 20:13:07;;;;;;;41.92;25.00;;;0.70;69.30;;;;;;2254019;59;21087;-50
2022/12/17 20:15:34;;;;;;;35.60;21.37;;;0.60;69.20;;;;;;2255420;59;21123;-47
2022/12/17 20:18:01;;;;;;;43.87;22.92;;;0.60;69.30;;;;;;2256419;59;21078;-49
2022/12/17 20:20:28;;;;;;;43.75;22.35;;;0.60;69.40;;;;;;2255890;59;21087;-50
2022/12/17 20:22:56;;;;;;;41.70;24.23;;;0.60;69.30;;;;;;2255778;59;21087;-50
2022/12/17 20:25:23;;;;;;;41.95;24.92;;;0.60;69.30;;;;;;2255105;59;21080;-49
2022/12/17 20:27:50;;;;;;;47.03;27.87;;;0.60;69.20;;;;;;2255284;59;21091;-50
2022/12/17 20:30:17;;;;;;;48.72;28.15;;;0.60;69.10;;;;;;2253460;59;21088;-48
2022/12/17 20:32:44;;;;;;;45.75;25.17;;;0.60;69.10;;;;;;2254697;59;21206;-49
2022/12/17 20:35:12;;;;;;;42.67;26.52;;;0.60;69.30;;;;;;2255262;59;21557;-50
2022/12/17 20:37:39;;;;;;;42.72;22.10;;;0.50;69.20;;;;;;2254650;59;21142;-48
2022/12/17 20:40:09;;;;;;;36.75;20.85;;;0.50;69.10;;;;;;2255061;59;21074;-48
2022/12/17 20:42:36;;;;;;;39.70;22.87;;;0.50;69.10;;;;;;2256067;59;21103;-46
2022/12/17 20:45:05;;;;;;;34.35;20.55;;;0.50;69.10;;;;;;2255977;59;21558;-50
2022/12/17 20:47:32;;;;;;;36.33;20.65;;;0.50;69.10;;;;;;2255516;59;21131;-49
2022/12/17 20:49:59;;;;;;;39.42;21.95;;;0.50;69.20;;;;;;2256436;59;21042;-47
2022/12/17 20:52:26;;;;;;;36.03;20.23;;;0.40;69.30;;;;;;2256485;59;21545;-49
2022/12/17 20:54:53;;;;;;;38.08;20.52;;;0.40;69.40;;;;;;2254863;59;21114;-48
2022/12/17 20:57:20;;;;;;;40.63;20.88;;;0.40;69.40;;;;;;2255110;59;21076;-52
2022/12/17 20:59:48;;;;;;;37.50;20.67;;;0.40;69.40;;;;;;2255325;59;21079;-47
2022/12/17 21:02:16;;;;;;;34.97;21.33;;;0.40;69.40;;;;;;2253493;59;21094;-47
2022/12/17 21:04:43;;;;;;;34.13;20.30;;;0.40;69.40;;;;;;2253583;59;21146;-50
2022/12/17 21:07:11;;;;;;;38.25;21.08;;;0.40;69.30;;;;;;2254762;59;21139;-52
2022/12/17 21:09:38;;;;;;;48.22;23.80;;;0.40;69.30;;;;;;2254275;59;21171;-51
2022/12/17 21:12:06;;;;;;;44.00;23.50;;;0.40;69.30;;;;;;2255776;59;21152;-50
2022/12/17 21:14:34;;;;;;;39.58;23.77;;;0.30;69.20;;;;;;2255600;59;21104;-49
2022/12/17 21:17:01;;;;;;;40.12;23.45;;;0.30;69.20;;;;;;2254560;59;21081;-48
2022/12/17 21:19:28;;;;;;;40.45;22.48;;;0.30;69.10;;;;;;2253860;59;21071;-48
2022/12/17 21:21:55;;;;;;;38.58;21.48;;;0.30;69.20;;;;;;2482753;56;21075;-48
2022/12/17 21:24:22;;;;;;;53.00;30.88;;;0.30;69.30;;;;;;2254216;59;21167;-51
2022/12/17 21:26:49;;;;;;;57.22;29.45;;;0.30;69.40;;;;;;2254858;59;21079;-47
2022/12/17 21:29:17;;;;;;;47.20;25.30;;;0.30;69.30;;;;;;2255289;59;21173;-49
2022/12/17 21:31:47;;;;;;;44.97;22.08;;;0.30;69.20;;;;;;2255027;59;21218;-50
2022/12/17 21:36:51;;;;;;;43.20;21.87;;;0.30;69.10;;;;;;2354445;57;22038;-50
2022/12/17 21:39:20;;;;;;;39.47;21.77;;;0.30;69.10;;;;;;2347640;57;21545;-47
2022/12/17 21:43:00;;;;;;;33.20;21.15;;;0.20;69.10;;;;;;2347101;57;21014;-49
2022/12/17 21:45:27;;;;;;;42.03;22.75;;;0.20;69.10;;;;;;2346207;57;21010;-47
2022/12/17 21:47:54;;;;;;;41.97;22.83;;;0.20;69.00;;;;;;2345069;57;21129;-45
2022/12/17 21:50:22;;;;;;;41.05;23.75;;;0.20;69.00;;;;;;2344274;57;21105;-51
2022/12/17 21:52:49;;;;;;;45.10;23.27;;;0.20;69.10;;;;;;2344519;57;21058;-46
2022/12/17 21:55:16;;;;;;;37.58;21.75;;;0.20;69.20;;;;;;2344808;57;21050;-49
2022/12/17 21:57:43;;;;;;;32.83;21.02;;;0.10;69.10;;;;;;2344660;57;21062;-50
2022/12/17 22:00:13;;;;;;;35.92;20.98;;;0.10;69.10;;;;;;2345056;57;21530;-49
2022/12/17 22:02:41;;;;;;;37.50;19.77;;;0.10;69.00;;;;;;2344748;57;21094;-47
2022/12/17 22:05:09;;;;;;;34.05;18.73;;;0.10;69.00;;;;;;2345603;57;21691;-48
2022/12/17 22:07:36;;;;;;;35.97;19.80;;;0.10;69.10;;;;;;2344754;57;21054;-49
2022/12/17 22:10:04;;;;;;;31.52;19.62;;;0.10;69.30;;;;;;2345187;57;21053;-48
2022/12/17 22:15:17;;;;;;;34.33;20.23;;;0.10;69.30;;;;;;2343724;57;21569;-52
2022/12/17 22:17:45;;;;;;;45.47;22.90;;;0.10;69.30;;;;;;2345116;57;21185;-50
2022/12/17 22:20:15;;;;;;;40.90;22.77;;;0.10;69.40;;;;;;2344673;57;21054;-51
2022/12/17 22:22:42;;;;;;;33.97;19.80;;;0.00;69.40;;;;;;2345210;57;21061;-48
2022/12/17 22:25:10;;;;;;;36.25;20.20;;;0.00;69.40;;;;;;2343667;57;21681;-50
2022/12/17 22:27:38;;;;;;;35.78;18.92;;;0.00;69.50;;;;;;2346328;57;21026;-52
2022/12/17 22:33:01;;;;;;;32.55;17.85;;;0.00;69.60;;;;;;2593480;53;20953;-47
2022/12/17 22:35:33;;;;;;;32.00;18.42;;;0.00;69.50;;;;;;2346095;57;21101;-47
2022/12/17 22:38:00;;;;;;;39.30;20.27;;;0.00;69.50;;;;;;2346177;57;21024;-47
2022/12/17 22:40:28;;;;;;;31.60;17.85;;;0.00;69.60;;;;;;2345130;57;21038;-51
2022/12/17 22:45:41;;;;;;;31.95;17.52;;;0.00;69.50;;;;;;2343988;57;21074;-46
2022/12/17 22:48:09;;;;;;;33.63;17.80;;;0.00;69.50;;;;;;2344097;57;21534;-48
2022/12/17 22:50:37;;;;;;;32.70;18.40;;;-0.10;69.60;;;;;;2343636;57;21562;-51
2022/12/17 22:53:04;;;;;;;36.20;17.83;;;-0.10;69.80;;;;;;2344016;57;21105;-48
2022/12/17 22:55:32;;;;;;;30.05;15.93;;;-0.10;69.90;;;;;;2343431;57;21455;-47
2022/12/17 22:57:59;;;;;;;27.73;15.75;;;0.00;69.90;;;;;;2343523;57;21609;-49
2022/12/17 23:00:30;;;;;;;26.92;14.95;;;0.00;69.80;;;;;;2342721;57;21049;-47
2022/12/17 23:02:58;;;;;;;35.63;16.85;;;0.00;69.70;;;;;;2343969;57;21030;-46
2022/12/17 23:05:26;;;;;;;28.40;15.23;;;-0.10;69.50;;;;;;2343398;57;21813;-51
2022/12/17 23:07:54;;;;;;;29.45;16.92;;;-0.10;69.40;;;;;;2344512;57;21133;-52
2022/12/17 23:10:22;;;;;;;35.88;17.85;;;-0.10;69.40;;;;;;2344366;57;21642;-49
2022/12/17 23:12:49;;;;;;;33.47;17.55;;;-0.10;69.20;;;;;;2343801;57;21541;-49
2022/12/17 23:15:17;;;;;;;28.23;17.30;;;-0.10;70.10;;;;;;2344420;57;21112;-50
2022/12/17 23:17:45;;;;;;;32.83;15.77;;;-0.10;69.40;;;;;;2344197;57;21513;-51
2022/12/17 23:20:13;;;;;;;31.55;16.87;;;-0.10;69.40;;;;;;2344151;57;21133;-51
2022/12/17 23:22:40;;;;;;;35.33;16.92;;;-0.10;69.40;;;;;;2345661;57;21581;-48
2022/12/17 23:25:08;;;;;;;26.08;15.65;;;-0.10;69.40;;;;;;2345731;57;21014;-47
2022/12/17 23:27:36;;;;;;;29.77;15.45;;;-0.10;69.50;;;;;;2345861;57;21125;-49
2022/12/17 23:30:06;;;;;;;27.17;15.70;;;-0.10;69.60;;;;;;2345545;57;21018;-50
2022/12/17 23:32:33;;;;;;;29.83;16.02;;;-0.10;69.60;;;;;;2344313;57;21153;-53
2022/12/17 23:37:36;;;;;;;30.67;18.85;;;-0.10;69.50;;;;;;2308578;57;27896;-52
2022/12/17 23:40:04;;;;;;;26.73;15.38;;;-0.50;70.70;;;;;;2347556;57;21054;-51
2022/12/17 23:42:31;;;;;;;25.40;14.60;;;-0.30;70.90;;;;;;2346919;57;21212;-50
2022/12/17 23:44:58;;;;;;;25.55;14.27;;;-0.20;70.00;;;;;;2346682;57;21069;-54
2022/12/17 23:47:26;;;;;;;27.45;14.57;;;-0.10;69.60;;;;;;2347493;57;21113;-47
2022/12/17 23:49:53;;;;;;;27.60;15.35;;;-0.10;69.30;;;;;;2347592;57;21065;-49
2022/12/17 23:52:20;;;;;;;31.10;15.48;;;-0.10;69.20;;;;;;2346692;57;21530;-48
2022/12/17 23:54:47;;;;;;;29.00;16.25;;;-0.20;68.70;;;;;;2347085;57;21041;-48
2022/12/17 23:57:14;;;;;;;33.38;15.20;;;-0.20;69.20;;;;;;2346894;57;21184;-48
2022/12/17 23:59:41;;;;;;;28.35;15.80;;;-0.20;69.30;;;;;;2346714;57;21049;-52
